createdAt,value
2022-09-30T00:01:14.313Z,0.01
2022-09-30T00:03:09.775Z,0.01
2022-09-30T00:05:09.290Z,0.01
2022-09-30T00:07:15.888Z,0.01
2022-09-30T00:09:09.680Z,0.01
2022-09-30T00:11:09.926Z,0.01
2022-09-30T00:13:08.691Z,0.01
2022-09-30T00:15:09.127Z,0.01
2022-09-30T00:17:09.294Z,0.01
2022-09-30T00:19:09.381Z,0.01
2022-09-30T00:21:08.834Z,0.01
2022-09-30T00:23:09.107Z,0.01
2022-09-30T00:25:09.354Z,0.63
2022-09-30T00:27:09.358Z,0.63
2022-09-30T00:29:09.699Z,0.63
2022-09-30T00:31:09.006Z,0.01
2022-09-30T00:33:09.520Z,0.01
2022-09-30T00:35:08.799Z,0.01
2022-09-30T00:37:09.453Z,0.01
2022-09-30T00:39:08.975Z,0.01
2022-09-30T00:41:09.452Z,0.01
2022-09-30T00:43:09.149Z,0.62
2022-09-30T00:45:09.006Z,0.62
2022-09-30T00:47:09.424Z,0.62
2022-09-30T00:49:09.025Z,0.01
2022-09-30T00:51:08.950Z,0.01
2022-09-30T00:53:08.952Z,0.01
2022-09-30T00:55:09.530Z,0.01
2022-09-30T00:57:09.629Z,0.01
2022-09-30T00:59:09.744Z,0.01
2022-09-30T01:01:10.627Z,0.61
2022-09-30T01:03:09.759Z,0.61
2022-09-30T01:05:08.791Z,0.61
2022-09-30T01:07:09.190Z,0.01
2022-09-30T01:09:09.820Z,0.01
2022-09-30T01:11:09.593Z,0.01
2022-09-30T01:13:08.804Z,0.6
2022-09-30T01:15:09.141Z,0.6
2022-09-30T01:17:10.047Z,0.6
2022-09-30T01:19:09.067Z,0.01
2022-09-30T01:21:09.655Z,0.01
2022-09-30T01:23:15.752Z,0.01
2022-09-30T01:25:09.510Z,0.59
2022-09-30T01:27:09.061Z,0.59
2022-09-30T01:29:09.137Z,0.59
2022-09-30T01:31:09.416Z,0.01
2022-09-30T01:33:09.729Z,0.01
2022-09-30T01:35:09.592Z,0.01
2022-09-30T01:37:08.934Z,0.01
2022-09-30T01:39:09.603Z,0.01
2022-09-30T01:41:09.693Z,0.01
2022-09-30T01:43:09.339Z,0.59
2022-09-30T01:45:09.505Z,0.59
2022-09-30T01:47:09.277Z,0.59
2022-09-30T01:49:09.339Z,0.59
2022-09-30T01:51:09.664Z,0.59
2022-09-30T01:53:09.003Z,0.59
2022-09-30T01:55:09.583Z,0.01
2022-09-30T01:57:08.919Z,0.01
2022-09-30T01:59:09.051Z,0.01
2022-09-30T02:01:13.317Z,0.01
2022-09-30T02:03:09.925Z,0.01
2022-09-30T02:05:08.718Z,0.01
2022-09-30T02:07:08.769Z,0.58
2022-09-30T02:09:09.151Z,0.58
2022-09-30T02:11:09.611Z,0.58
2022-09-30T02:13:08.710Z,0.01
2022-09-30T02:15:09.576Z,0.01
2022-09-30T02:17:09.725Z,0.01
2022-09-30T02:19:08.822Z,0.58
2022-09-30T02:21:09.198Z,0.58
2022-09-30T02:23:08.828Z,0.58
2022-09-30T02:25:09.608Z,0.58
2022-09-30T02:27:09.086Z,0.58
2022-09-30T02:29:09.351Z,0.58
2022-09-30T02:31:09.693Z,0.01
2022-09-30T02:33:09.145Z,0.01
2022-09-30T02:35:09.479Z,0.01
2022-09-30T02:37:09.716Z,0.01
2022-09-30T02:39:09.444Z,0.01
2022-09-30T02:41:09.662Z,0.01
2022-09-30T02:43:09.689Z,0.01
2022-09-30T02:45:08.872Z,0.01
2022-09-30T02:47:09.529Z,0.01
2022-09-30T02:49:08.844Z,0.57
2022-09-30T02:51:09.364Z,0.57
2022-09-30T02:53:09.755Z,0.57
2022-09-30T02:55:09.515Z,0.57
2022-09-30T02:57:09.659Z,0.57
2022-09-30T02:59:08.924Z,0.57
2022-09-30T03:01:19.760Z,0.57
2022-09-30T03:03:09.454Z,0.57
2022-09-30T03:05:09.090Z,0.57
2022-09-30T03:07:09.454Z,0.57
2022-09-30T03:09:08.909Z,0.57
2022-09-30T03:11:09.304Z,0.57
2022-09-30T03:13:08.776Z,0.56
2022-09-30T03:15:09.659Z,0.56
2022-09-30T03:17:10.691Z,0.56
2022-09-30T03:19:08.700Z,0.56
2022-09-30T03:21:08.832Z,0.56
2022-09-30T03:23:09.065Z,0.56
2022-09-30T03:25:08.897Z,0.01
2022-09-30T03:27:08.968Z,0.01
2022-09-30T03:29:09.035Z,0.01
2022-09-30T03:31:10.025Z,0.56
2022-09-30T03:33:09.365Z,0.56
2022-09-30T03:35:08.879Z,0.56
2022-09-30T03:37:14.702Z,0.01
2022-09-30T03:39:08.813Z,0.01
2022-09-30T03:41:09.198Z,0.01
2022-09-30T03:43:09.681Z,0.01
2022-09-30T03:45:09.192Z,0.01
2022-09-30T03:47:09.938Z,0.01
2022-09-30T03:49:08.743Z,0.01
2022-09-30T03:51:09.368Z,0.01
2022-09-30T03:53:08.914Z,0.01
2022-09-30T03:55:08.813Z,0.56
2022-09-30T03:57:08.909Z,0.56
2022-09-30T03:59:08.911Z,0.56
2022-09-30T04:01:12.841Z,0.01
2022-09-30T04:03:09.760Z,0.01
2022-09-30T04:05:08.960Z,0.01
2022-09-30T04:07:09.469Z,0.01
2022-09-30T04:09:09.573Z,0.01
2022-09-30T04:11:09.124Z,0.01
2022-09-30T04:13:09.508Z,0.56
2022-09-30T04:15:09.422Z,0.56
2022-09-30T04:17:15.660Z,0.56
2022-09-30T04:19:08.682Z,0.01
2022-09-30T04:21:08.865Z,0.01
2022-09-30T04:23:11.631Z,0.01
2022-09-30T04:25:09.412Z,0.01
2022-09-30T04:27:09.545Z,0.01
2022-09-30T04:29:08.652Z,0.01
2022-09-30T04:31:14.195Z,0.01
2022-09-30T04:33:08.921Z,0.01
2022-09-30T04:35:09.156Z,0.01
2022-09-30T04:37:11.126Z,0.55
2022-09-30T04:39:09.485Z,0.55
2022-09-30T04:41:09.489Z,0.55
2022-09-30T04:43:09.606Z,0.01
2022-09-30T04:45:09.378Z,0.01
2022-09-30T04:47:09.962Z,0.01
2022-09-30T04:49:09.737Z,0.01
2022-09-30T04:51:09.245Z,0.01
2022-09-30T04:53:09.174Z,0.01
2022-09-30T04:55:09.455Z,0.01
2022-09-30T04:57:09.587Z,0.01
2022-09-30T04:59:11.018Z,0.01
2022-09-30T05:01:12.936Z,0.01
2022-09-30T05:03:09.289Z,0.01
2022-09-30T05:05:08.711Z,0.01
2022-09-30T05:07:09.915Z,0.01
2022-09-30T05:09:09.645Z,0.01
2022-09-30T05:11:09.550Z,0.01
2022-09-30T05:13:09.126Z,0.01
2022-09-30T05:15:08.938Z,0.01
2022-09-30T05:17:09.504Z,0.01
2022-09-30T05:19:09.167Z,0.01
2022-09-30T05:21:08.901Z,0.01
2022-09-30T05:23:09.084Z,0.01
2022-09-30T05:25:09.341Z,0.01
2022-09-30T05:27:09.603Z,0.01
2022-09-30T05:29:09.486Z,0.01
2022-09-30T05:31:09.351Z,0.01
2022-09-30T05:33:09.469Z,0.01
2022-09-30T05:35:08.931Z,0.01
2022-09-30T05:37:09.312Z,0.01
2022-09-30T05:39:08.777Z,0.01
2022-09-30T05:41:09.095Z,0.01
2022-09-30T05:43:10.478Z,0.01
2022-09-30T05:45:09.392Z,0.01
2022-09-30T05:47:09.413Z,0.01
2022-09-30T05:49:09.006Z,0.03
2022-09-30T05:51:09.336Z,0.03
2022-09-30T05:53:09.573Z,0.03
2022-09-30T05:55:09.387Z,0.02
2022-09-30T05:57:09.146Z,0.02
2022-09-30T05:59:09.396Z,0.02
2022-09-30T06:01:20.580Z,1.06
2022-09-30T06:03:09.690Z,1.06
2022-09-30T06:05:09.345Z,1.06
2022-09-30T06:07:10.620Z,0.89
2022-09-30T06:09:09.473Z,0.88
2022-09-30T06:11:08.986Z,0.88
2022-09-30T06:13:09.095Z,0.88
2022-09-30T06:15:08.842Z,0.88
2022-09-30T06:17:10.289Z,0.88
2022-09-30T06:19:14.033Z,0.88
2022-09-30T06:21:09.176Z,0.88
2022-09-30T06:23:09.090Z,0.88
2022-09-30T06:25:09.119Z,0.88
2022-09-30T06:27:09.472Z,0.88
2022-09-30T06:29:09.563Z,0.88
2022-09-30T06:31:09.668Z,0.88
2022-09-30T06:33:09.438Z,0.88
2022-09-30T06:35:09.246Z,0.88
2022-09-30T06:37:09.097Z,0.88
2022-09-30T06:39:13.539Z,0.88
2022-09-30T06:41:09.383Z,0.88
2022-09-30T06:43:09.585Z,0.88
2022-09-30T06:45:42.095Z,0.88
2022-09-30T06:47:58.598Z,0.88
2022-09-30T06:49:43.603Z,0.88
2022-09-30T06:51:32.420Z,0.88
2022-09-30T06:53:09.444Z,0.88
2022-09-30T06:55:08.833Z,0.88
2022-09-30T06:57:09.299Z,0.88
2022-09-30T06:59:08.761Z,0.88
2022-09-30T07:01:15.174Z,0.88
2022-09-30T07:03:09.767Z,0.88
2022-09-30T07:05:09.407Z,0.88
2022-09-30T07:07:09.664Z,0.88
2022-09-30T07:09:09.088Z,0.88
2022-09-30T07:11:09.365Z,0.88
2022-09-30T07:13:09.323Z,0.04
2022-09-30T07:15:13.382Z,0.04
2022-09-30T07:17:09.607Z,0.04
2022-09-30T07:19:09.446Z,0.04
2022-09-30T07:21:09.739Z,0.04
2022-09-30T07:23:08.999Z,0.04
2022-09-30T07:25:09.392Z,0.04
2022-09-30T07:27:09.159Z,0.04
2022-09-30T07:29:09.809Z,0.04
2022-09-30T07:31:54.371Z,0.04
2022-09-30T07:33:10.187Z,0.04
2022-09-30T07:35:08.678Z,0.04
2022-09-30T07:37:14.806Z,0.04
2022-09-30T07:39:08.866Z,0.04
2022-09-30T07:41:08.920Z,0.04
2022-09-30T07:43:08.805Z,0.04
2022-09-30T07:45:08.897Z,0.04
2022-09-30T07:47:09.170Z,0.04
2022-09-30T07:49:09.797Z,0.04
2022-09-30T07:51:09.183Z,0.04
2022-09-30T07:53:09.038Z,0.04
2022-09-30T07:55:15.610Z,0.04
2022-09-30T07:57:42.273Z,0.04
2022-09-30T07:59:09.223Z,0.04
2022-09-30T08:01:39.582Z,0.04
2022-09-30T08:03:09.628Z,0.04
2022-09-30T08:05:13.029Z,0.04
2022-09-30T08:07:09.605Z,0.04
2022-09-30T08:09:08.850Z,0.04
2022-09-30T08:11:09.009Z,0.04
2022-09-30T08:13:13.304Z,0.04
2022-09-30T08:15:09.579Z,0.04
2022-09-30T08:17:09.731Z,0.04
2022-09-30T08:19:09.092Z,0.04
2022-09-30T08:21:11.923Z,0.07
2022-09-30T08:23:09.076Z,0.07
2022-09-30T08:25:09.030Z,0.07
2022-09-30T08:27:09.617Z,0.02
2022-09-30T08:29:09.095Z,0.02
2022-09-30T08:31:12.412Z,0.02
2022-09-30T08:33:09.834Z,0.01
2022-09-30T08:35:09.745Z,0.01
2022-09-30T08:37:11.048Z,0.01
2022-09-30T08:39:08.681Z,1.03
2022-09-30T08:41:09.315Z,1.03
2022-09-30T08:43:41.820Z,1.03
2022-09-30T08:45:09.854Z,0.01
2022-09-30T08:47:09.921Z,0.01
2022-09-30T08:49:13.929Z,0.01
2022-09-30T08:51:08.852Z,0.91
2022-09-30T08:53:33.651Z,0.91
2022-09-30T08:55:13.962Z,0.91
2022-09-30T08:57:09.375Z,0.01
2022-09-30T08:59:09.510Z,0.01
2022-09-30T09:01:12.382Z,0.01
2022-09-30T09:03:14.037Z,0.82
2022-09-30T09:05:10.104Z,0.82
2022-09-30T09:07:08.703Z,0.82
2022-09-30T09:09:09.018Z,0.01
2022-09-30T09:11:09.514Z,0.01
2022-09-30T09:13:09.650Z,0.01
2022-09-30T09:15:08.920Z,0.74
2022-09-30T09:17:15.226Z,0.74
2022-09-30T09:19:30.601Z,0.74
2022-09-30T09:21:09.248Z,0.71
2022-09-30T09:23:10.111Z,0.71
2022-09-30T09:25:09.544Z,0.71
2022-09-30T09:27:08.898Z,0.67
2022-09-30T09:29:15.700Z,0.67
2022-09-30T09:31:08.980Z,0.67
2022-09-30T09:33:09.776Z,0.01
2022-09-30T09:35:13.909Z,0.01
2022-09-30T09:37:08.781Z,0.01
2022-09-30T09:39:09.501Z,0.71
2022-09-30T09:41:12.061Z,0.71
2022-09-30T09:43:09.593Z,0.71
2022-09-30T09:45:08.918Z,0.71
2022-09-30T09:47:09.655Z,0.71
2022-09-30T09:49:09.146Z,0.71
2022-09-30T09:51:09.114Z,0.01
2022-09-30T09:53:09.202Z,0.01
2022-09-30T09:55:09.521Z,0.01
2022-09-30T09:57:14.779Z,0.01
2022-09-30T09:59:09.072Z,0.01
2022-09-30T10:01:15.465Z,0.01
2022-09-30T10:03:09.587Z,0.01
2022-09-30T10:05:09.467Z,0.01
2022-09-30T10:07:09.024Z,0.01
2022-09-30T10:09:09.403Z,0.01
2022-09-30T10:11:09.753Z,0.01
2022-09-30T10:13:08.931Z,0.01
2022-09-30T10:15:10.070Z,0.66
2022-09-30T10:17:08.900Z,0.66
2022-09-30T10:19:09.728Z,0.66
2022-09-30T10:21:09.520Z,0.64
2022-09-30T10:23:09.439Z,0.64
2022-09-30T10:25:08.976Z,0.64
2022-09-30T10:27:11.936Z,0.65
2022-09-30T10:29:09.812Z,0.65
2022-09-30T10:31:08.925Z,0.65
2022-09-30T10:33:09.117Z,0.01
2022-09-30T10:35:09.476Z,0.01
2022-09-30T10:37:08.903Z,0.01
2022-09-30T10:39:14.011Z,0.01
2022-09-30T10:41:09.450Z,0.01
2022-09-30T10:43:12.165Z,0.01
2022-09-30T10:45:08.721Z,0.01
2022-09-30T10:47:36.955Z,0.01
2022-09-30T10:49:09.562Z,0.01
2022-09-30T10:51:09.194Z,0.01
2022-09-30T10:53:09.309Z,0.01
2022-09-30T10:55:14.816Z,0.01
2022-09-30T10:57:11.287Z,0.01
2022-09-30T10:59:09.950Z,0.01
2022-09-30T11:01:11.605Z,0.01
2022-09-30T11:03:16.852Z,0.01
2022-09-30T11:05:09.705Z,0.01
2022-09-30T11:07:10.370Z,0.01
2022-09-30T11:09:09.400Z,0.01
2022-09-30T11:11:10.563Z,0.01
2022-09-30T11:13:09.427Z,0.01
2022-09-30T11:15:09.055Z,0.01
2022-09-30T11:17:09.692Z,0.01
2022-09-30T11:19:09.456Z,0.01
2022-09-30T11:21:09.925Z,0.68
2022-09-30T11:23:08.881Z,0.68
2022-09-30T11:25:11.186Z,0.68
2022-09-30T11:27:09.479Z,0.01
2022-09-30T11:29:09.607Z,0.01
2022-09-30T11:31:09.964Z,0.01
2022-09-30T11:33:09.390Z,0.66
2022-09-30T11:35:09.300Z,0.66
2022-09-30T11:37:08.803Z,0.66
2022-09-30T11:39:09.049Z,0.66
2022-09-30T11:41:09.277Z,0.66
2022-09-30T11:43:09.121Z,0.66
2022-09-30T11:45:08.734Z,0.65
2022-09-30T11:47:09.511Z,0.65
2022-09-30T11:49:08.739Z,0.65
2022-09-30T11:51:09.072Z,0.66
2022-09-30T11:53:09.315Z,0.66
2022-09-30T11:55:13.096Z,0.66
2022-09-30T11:57:09.042Z,0.66
2022-09-30T11:59:38.545Z,0.66
2022-09-30T12:01:12.863Z,0.66
2022-09-30T12:03:10.365Z,0.67
2022-09-30T12:05:09.563Z,0.67
2022-09-30T12:07:09.671Z,0.67
2022-09-30T12:09:08.818Z,0.01
2022-09-30T12:11:09.557Z,0.01
2022-09-30T12:13:13.108Z,0.01
2022-09-30T12:15:09.444Z,0.69
2022-09-30T12:17:09.555Z,0.69
2022-09-30T12:19:09.126Z,0.69
2022-09-30T12:21:09.322Z,0.66
2022-09-30T12:23:09.706Z,0.66
2022-09-30T12:25:09.146Z,0.66
2022-09-30T12:27:08.801Z,0.01
2022-09-30T12:29:15.006Z,0.01
2022-09-30T12:31:09.273Z,0.01
2022-09-30T12:33:09.311Z,0.01
2022-09-30T12:35:09.042Z,0.01
2022-09-30T12:37:08.891Z,0.01
2022-09-30T12:39:09.199Z,0.68
2022-09-30T12:41:15.011Z,0.68
2022-09-30T12:43:09.639Z,0.68
2022-09-30T12:45:08.801Z,0.68
2022-09-30T12:47:09.669Z,0.68
2022-09-30T12:49:13.944Z,0.68
2022-09-30T12:51:09.134Z,0.01
2022-09-30T12:53:09.275Z,0.01
2022-09-30T12:55:09.712Z,0.01
2022-09-30T12:57:09.552Z,0.68
2022-09-30T12:59:15.697Z,0.68
2022-09-30T13:01:12.307Z,0.68
2022-09-30T13:03:09.474Z,0.01
2022-09-30T13:05:09.435Z,0.01
2022-09-30T13:07:09.251Z,0.01
2022-09-30T13:09:10.578Z,0.01
2022-09-30T13:11:09.035Z,0.01
2022-09-30T13:13:09.466Z,0.01
2022-09-30T13:15:12.304Z,0.01
2022-09-30T13:17:15.132Z,0.01
2022-09-30T13:19:09.310Z,0.01
2022-09-30T13:21:09.504Z,0.01
2022-09-30T13:23:09.378Z,0.01
2022-09-30T13:25:09.239Z,0.01
2022-09-30T13:27:09.051Z,0.01
2022-09-30T13:29:09.099Z,0.01
2022-09-30T13:31:09.267Z,0.01
2022-09-30T13:33:09.159Z,0.67
2022-09-30T13:35:09.600Z,0.67
2022-09-30T13:37:08.968Z,0.67
2022-09-30T13:39:09.491Z,0.66
2022-09-30T13:41:37.243Z,0.66
2022-09-30T13:43:08.994Z,0.66
2022-09-30T13:45:09.351Z,0.01
2022-09-30T13:47:09.515Z,0.01
2022-09-30T13:49:09.625Z,0.01
2022-09-30T13:51:09.380Z,0.01
2022-09-30T13:53:12.935Z,0.01
2022-09-30T13:55:08.693Z,0.01
2022-09-30T13:57:09.059Z,0.01
2022-09-30T13:59:08.937Z,0.01
2022-09-30T14:01:12.513Z,0.01
2022-09-30T14:03:09.333Z,0.66
2022-09-30T14:05:09.311Z,0.66
2022-09-30T14:07:09.587Z,0.66
2022-09-30T14:09:09.398Z,0.65
2022-09-30T14:11:16.691Z,0.65
2022-09-30T14:13:08.763Z,0.65
2022-09-30T14:15:09.324Z,0.01
2022-09-30T14:17:09.257Z,0.01
2022-09-30T14:19:18.561Z,0.01
2022-09-30T14:21:09.582Z,0.01
2022-09-30T14:23:09.575Z,0.01
2022-09-30T14:25:11.945Z,0.01
2022-09-30T14:27:09.323Z,0.01
2022-09-30T14:29:09.900Z,0.01
2022-09-30T14:31:13.344Z,0.01
2022-09-30T14:33:09.761Z,0.01
2022-09-30T14:35:08.878Z,0.01
2022-09-30T14:37:09.129Z,0.01
2022-09-30T14:39:09.306Z,0.65
2022-09-30T14:41:09.201Z,0.65
2022-09-30T14:43:09.529Z,0.65
2022-09-30T14:45:08.694Z,0.01
2022-09-30T14:47:10.062Z,0.01
2022-09-30T14:49:09.342Z,0.01
2022-09-30T14:51:08.872Z,0.65
2022-09-30T14:53:09.709Z,0.65
2022-09-30T14:55:08.727Z,0.65
2022-09-30T14:57:10.006Z,0.65
2022-09-30T14:59:09.735Z,0.65
2022-09-30T15:01:09.387Z,0.65
2022-09-30T15:03:09.149Z,0.01
2022-09-30T15:05:13.195Z,0.01
2022-09-30T15:07:09.683Z,0.01
2022-09-30T15:09:08.758Z,0.01
2022-09-30T15:11:09.434Z,0.01
2022-09-30T15:13:09.013Z,0.01
2022-09-30T15:15:09.717Z,0.01
2022-09-30T15:17:16.508Z,0.01
2022-09-30T15:19:09.476Z,0.01
2022-09-30T15:21:09.322Z,0.01
2022-09-30T15:23:10.007Z,0.01
2022-09-30T15:25:09.719Z,0.01
2022-09-30T15:27:13.556Z,0.01
2022-09-30T15:29:09.702Z,0.01
2022-09-30T15:31:08.856Z,0.01
2022-09-30T15:33:11.797Z,0.62
2022-09-30T15:35:09.904Z,0.62
2022-09-30T15:37:09.563Z,0.62
2022-09-30T15:39:09.099Z,0.61
2022-09-30T15:41:09.190Z,0.61
2022-09-30T15:43:09.572Z,0.61
2022-09-30T15:45:08.696Z,0.01
2022-09-30T15:47:10.893Z,0.01
2022-09-30T15:49:09.306Z,0.01
2022-09-30T15:51:09.681Z,0.01
2022-09-30T15:53:09.404Z,0.01
2022-09-30T15:55:09.218Z,0.01
2022-09-30T15:57:09.922Z,0.01
2022-09-30T15:59:09.639Z,0.01
2022-09-30T16:01:13.955Z,0.01
2022-09-30T16:03:09.714Z,0.01
2022-09-30T16:05:09.502Z,0.01
2022-09-30T16:07:10.297Z,0.01
2022-09-30T16:09:08.947Z,0.61
2022-09-30T16:11:09.055Z,0.61
2022-09-30T16:13:09.724Z,0.61
2022-09-30T16:15:09.709Z,0.01
2022-09-30T16:17:10.361Z,0.01
2022-09-30T16:19:09.545Z,0.01
2022-09-30T16:21:09.026Z,0.6
2022-09-30T16:23:09.485Z,0.6
2022-09-30T16:25:09.074Z,0.6
2022-09-30T16:27:09.655Z,0.01
2022-09-30T16:29:14.645Z,0.01
2022-09-30T16:31:09.570Z,0.01
2022-09-30T16:33:08.872Z,0.59
2022-09-30T16:35:09.204Z,0.59
2022-09-30T16:37:09.496Z,0.59
2022-09-30T16:39:09.145Z,0.01
2022-09-30T16:41:09.583Z,0.01
2022-09-30T16:43:08.965Z,0.01
2022-09-30T16:45:09.489Z,0.01
2022-09-30T16:47:09.928Z,0.01
2022-09-30T16:49:09.323Z,0.01
2022-09-30T16:51:10.217Z,0.59
2022-09-30T16:53:09.070Z,0.59
2022-09-30T16:55:09.778Z,0.59
2022-09-30T16:57:12.360Z,0.01
2022-09-30T16:59:09.034Z,0.01
2022-09-30T17:01:12.676Z,0.01
2022-09-30T17:03:10.297Z,0.01
2022-09-30T17:05:13.625Z,0.01
2022-09-30T17:07:09.864Z,0.01
2022-09-30T17:09:09.414Z,0.01
2022-09-30T17:11:10.810Z,0.01
2022-09-30T17:13:09.066Z,0.01
2022-09-30T17:15:09.728Z,0.01
2022-09-30T17:17:13.462Z,0.01
2022-09-30T17:19:09.742Z,0.01
2022-09-30T17:21:09.823Z,0.01
2022-09-30T17:23:09.406Z,0.01
2022-09-30T17:25:09.145Z,0.01
2022-09-30T17:27:09.504Z,0.57
2022-09-30T17:29:42.094Z,0.57
2022-09-30T17:31:08.824Z,0.57
2022-09-30T17:33:09.177Z,0.56
2022-09-30T17:35:09.197Z,0.56
2022-09-30T17:37:09.323Z,0.56
2022-09-30T17:39:09.591Z,0.56
2022-09-30T17:41:08.906Z,0.56
2022-09-30T17:43:10.227Z,0.56
2022-09-30T17:45:09.707Z,0.56
2022-09-30T17:47:09.249Z,0.56
2022-09-30T17:49:09.264Z,0.56
2022-09-30T17:51:09.031Z,0.01
2022-09-30T17:53:09.132Z,0.01
2022-09-30T17:55:14.831Z,0.01
2022-09-30T17:57:09.142Z,0.01
2022-09-30T17:59:09.405Z,0.01
2022-09-30T18:01:12.748Z,0.01
2022-09-30T18:03:09.848Z,0.01
2022-09-30T18:05:09.264Z,0.01
2022-09-30T18:07:09.102Z,0.01
2022-09-30T18:09:09.390Z,0.57
2022-09-30T18:11:09.730Z,0.57
2022-09-30T18:13:08.751Z,0.57
2022-09-30T18:15:09.038Z,0.01
2022-09-30T18:17:10.217Z,0.01
2022-09-30T18:19:09.807Z,0.01
2022-09-30T18:21:10.756Z,0.01
2022-09-30T18:23:09.448Z,0.01
2022-09-30T18:25:08.888Z,0.01
2022-09-30T18:27:09.939Z,0.01
2022-09-30T18:29:09.206Z,0.01
2022-09-30T18:31:09.306Z,0.01
2022-09-30T18:33:09.524Z,0.58
2022-09-30T18:35:09.194Z,0.58
2022-09-30T18:37:08.849Z,0.58
2022-09-30T18:39:08.896Z,0.58
2022-09-30T18:41:09.716Z,0.58
2022-09-30T18:43:09.451Z,0.58
2022-09-30T18:45:09.170Z,0.57
2022-09-30T18:47:09.201Z,0.57
2022-09-30T18:49:09.637Z,0.57
2022-09-30T18:51:09.005Z,0.01
2022-09-30T18:53:10.233Z,0.01
2022-09-30T18:55:09.114Z,0.01
2022-09-30T18:57:09.310Z,0.01
2022-09-30T18:59:09.479Z,0.01
2022-09-30T19:01:12.034Z,0.01
2022-09-30T19:03:09.397Z,0.56
2022-09-30T19:05:11.368Z,0.56
2022-09-30T19:07:09.145Z,0.56
2022-09-30T19:09:09.305Z,0.56
2022-09-30T19:11:12.660Z,0.56
2022-09-30T19:13:09.127Z,0.56
2022-09-30T19:15:09.038Z,0.01
2022-09-30T19:17:12.901Z,0.01
2022-09-30T19:19:08.882Z,0.01
2022-09-30T19:21:08.874Z,0.01
2022-09-30T19:23:09.172Z,0.01
2022-09-30T19:25:12.631Z,0.01
2022-09-30T19:27:08.846Z,0.01
2022-09-30T19:29:09.249Z,0.01
2022-09-30T19:31:09.452Z,0.01
2022-09-30T19:33:09.198Z,0.01
2022-09-30T19:35:44.095Z,0.01
2022-09-30T19:37:57.744Z,0.01
2022-09-30T19:39:40.887Z,0.01
2022-09-30T19:41:23.355Z,0.01
2022-09-30T19:43:11.728Z,0.01
2022-09-30T19:47:25.170Z,0.56
2022-09-30T19:50:28.695Z,0.01
2022-09-30T19:53:41.539Z,0.01
2022-09-30T20:05:41.292Z,0.01
2022-09-30T20:15:15.356Z,0.01
2022-09-30T20:15:29.893Z,0.01
2022-09-30T20:17:09.729Z,0.55
2022-09-30T20:19:08.841Z,0.55
2022-09-30T20:21:09.330Z,0.01
2022-09-30T20:23:14.176Z,0.55
2022-09-30T20:25:08.863Z,0.55
2022-09-30T20:27:09.065Z,0.54
2022-09-30T20:29:09.687Z,0.54
2022-09-30T20:31:09.654Z,0.54
2022-09-30T20:33:08.941Z,0.54
2022-09-30T20:35:12.688Z,0.01
2022-09-30T20:37:09.505Z,0.01
2022-09-30T20:39:08.936Z,0.01
2022-09-30T20:41:09.597Z,0.54
2022-09-30T20:43:12.994Z,0.54
2022-09-30T20:45:09.677Z,0.54
2022-09-30T20:47:09.698Z,0.54
2022-09-30T20:49:09.087Z,0.54
2022-09-30T20:51:09.465Z,0.54
2022-09-30T20:53:09.517Z,0.01
2022-09-30T20:55:09.473Z,0.01
2022-09-30T20:57:39.391Z,0.54
2022-09-30T20:59:09.466Z,0.01
2022-09-30T21:01:13.567Z,0.01
2022-09-30T21:03:09.424Z,0.53
2022-09-30T21:05:14.970Z,0.01
2022-09-30T21:07:09.338Z,0.01
2022-09-30T21:09:09.192Z,0.53
2022-09-30T21:11:08.999Z,0.01
2022-09-30T21:13:10.935Z,0.01
2022-09-30T21:15:08.793Z,0.53
2022-09-30T21:17:09.597Z,0.01
2022-09-30T21:19:09.440Z,0.01
2022-09-30T21:21:09.027Z,0.53
2022-09-30T21:23:08.916Z,0.53
2022-09-30T21:25:09.285Z,0.53
2022-09-30T21:27:08.922Z,0.01
2022-09-30T21:29:11.942Z,0.53
2022-09-30T21:31:09.427Z,0.53
2022-09-30T21:33:08.980Z,0.53
2022-09-30T21:35:09.613Z,0.53
2022-09-30T21:37:09.238Z,0.53
2022-09-30T21:39:08.879Z,0.53
2022-09-30T21:41:09.404Z,0.53
2022-09-30T21:43:09.332Z,0.01
2022-09-30T21:45:09.616Z,0.01
2022-09-30T21:47:11.480Z,0.01
2022-09-30T21:49:09.128Z,0.53
2022-09-30T21:51:09.333Z,0.01
2022-09-30T21:53:09.277Z,0.01
2022-09-30T21:55:09.246Z,0.53
2022-09-30T21:57:09.386Z,0.53
2022-09-30T21:59:09.447Z,0.53
2022-09-30T22:01:12.735Z,0.01
2022-09-30T22:03:09.946Z,0.01
2022-09-30T22:05:09.011Z,0.01
2022-09-30T22:07:08.707Z,0.53
2022-09-30T22:09:09.455Z,0.01
2022-09-30T22:11:09.651Z,0.01
2022-09-30T22:13:09.218Z,0.54
2022-09-30T22:15:08.917Z,0.01
2022-09-30T22:17:09.821Z,0.01
2022-09-30T22:19:09.509Z,0.01
2022-09-30T22:21:09.473Z,0.55
2022-09-30T22:23:09.259Z,0.55
2022-09-30T22:25:08.806Z,0.01
2022-09-30T22:27:09.681Z,0.01
2022-09-30T22:29:09.399Z,0.01
2022-09-30T22:31:08.736Z,0.56
2022-09-30T22:33:09.956Z,0.01
2022-09-30T22:35:09.554Z,0.01
2022-09-30T22:37:09.504Z,0.01
2022-09-30T22:39:09.346Z,0.56
2022-09-30T22:41:08.989Z,0.56
2022-09-30T22:43:09.562Z,0.01
2022-09-30T22:45:09.001Z,0.01
2022-09-30T22:47:09.174Z,0.01
2022-09-30T22:49:08.902Z,0.01
2022-09-30T22:51:09.637Z,0.01
2022-09-30T22:53:09.700Z,0.01
2022-09-30T22:55:09.751Z,0.01
2022-09-30T22:57:09.769Z,0.01
2022-09-30T22:59:09.320Z,0.01
2022-09-30T23:01:12.041Z,0.01
2022-09-30T23:03:09.777Z,0.01
2022-09-30T23:05:09.809Z,0.01
2022-09-30T23:07:09.028Z,0.01
2022-09-30T23:09:09.341Z,0.01
2022-09-30T23:11:09.374Z,0.01
2022-09-30T23:13:09.937Z,0.01
2022-09-30T23:15:09.215Z,0.01
2022-09-30T23:17:09.974Z,0.01
2022-09-30T23:19:09.569Z,0.01
2022-09-30T23:21:09.773Z,0.01
2022-09-30T23:23:08.924Z,0.01
2022-09-30T23:25:09.524Z,0.01
2022-09-30T23:27:09.243Z,0.01
2022-09-30T23:29:09.387Z,0.01
2022-09-30T23:31:09.267Z,0.01
2022-09-30T23:33:09.182Z,0.01
2022-09-30T23:35:09.089Z,0.01
2022-09-30T23:37:09.088Z,0.01
2022-09-30T23:39:09.511Z,0.01
2022-09-30T23:41:09.120Z,0.01
2022-09-30T23:43:08.687Z,0.01
2022-09-30T23:45:09.056Z,0.01
2022-09-30T23:47:09.520Z,0.01
2022-09-30T23:49:09.204Z,0.03
2022-09-30T23:51:09.208Z,3.72
2022-09-30T23:53:09.711Z,3.72
2022-09-30T23:55:08.782Z,0.02
2022-09-30T23:57:09.351Z,0.02
2022-09-30T23:59:09.403Z,0.02
